Time;durP1;ratioP1;P1;durP2;ratioP2;P2;SDS_P1;SDS_P2;PMS_P1;PMS_P2;Temp;Humidity;BMP_temperature;BMP_pressure;BME280_temperature;BME280_humidity;BME280_pressure;Samples;Min_cycle;Max_cycle;Signal;HPM_P1;HPM_P2
2021/05/04 00:02:10;;;;;;;5.63;4.15;;;6.40;99.90;;;;;;5010740;28;20088;-82
2021/05/04 00:04:37;;;;;;;4.93;3.72;;;6.50;99.90;;;;;;5008064;28;20049;-88
2021/05/04 00:07:03;;;;;;;6.15;4.63;;;6.60;99.90;;;;;;5010255;28;20077;-87
2021/05/04 00:09:30;;;;;;;6.43;4.65;;;6.60;99.90;;;;;;5004905;28;20525;-85
2021/05/04 00:11:56;;;;;;;6.68;4.65;;;6.60;99.90;;;;;;5009997;28;20510;-87
2021/05/04 00:14:23;;;;;;;5.47;4.32;;;6.70;99.90;;;;;;5006747;28;20069;-86
2021/05/04 00:16:49;;;;;;;6.10;4.45;;;6.70;99.90;;;;;;4992359;28;20084;-88
2021/05/04 00:19:18;;;;;;;7.00;4.20;;;6.70;99.90;;;;;;5005900;28;20088;-86
2021/05/04 00:21:46;;;;;;;6.07;4.72;;;6.60;99.90;;;;;;4991852;28;20143;-88
2021/05/04 00:24:14;;;;;;;8.00;4.43;;;6.60;99.90;;;;;;5006654;28;20161;-87
2021/05/04 00:26:41;;;;;;;10.75;4.63;;;6.60;99.90;;;;;;4975861;28;20054;-88
2021/05/04 00:29:07;;;;;;;7.10;4.85;;;6.70;99.90;;;;;;5011489;28;20064;-87
2021/05/04 00:31:34;;;;;;;6.10;4.10;;;6.60;99.90;;;;;;4988435;28;20156;-89
2021/05/04 00:34:00;;;;;;;6.95;5.28;;;6.60;99.90;;;;;;4987284;28;20037;-88
2021/05/04 00:36:26;;;;;;;7.22;4.38;;;6.60;99.90;;;;;;4992887;28;20060;-87
2021/05/04 00:38:53;;;;;;;8.65;4.65;;;6.60;99.90;;;;;;4990960;28;20109;-85
2021/05/04 00:41:19;;;;;;;7.95;5.05;;;6.50;99.90;;;;;;5008448;28;20088;-88
2021/05/04 00:43:45;;;;;;;4.57;4.18;;;6.50;99.90;;;;;;5004496;28;20042;-87
2021/05/04 00:46:15;;;;;;;4.75;4.22;;;6.40;99.90;;;;;;4991453;28;20141;-89
2021/05/04 00:48:42;;;;;;;7.05;4.38;;;6.50;99.90;;;;;;5003307;28;20369;-88
2021/05/04 00:51:08;;;;;;;5.43;4.20;;;6.50;99.90;;;;;;4990692;28;20055;-89
2021/05/04 00:53:37;;;;;;;7.97;4.28;;;6.50;99.90;;;;;;4988178;28;20149;-90
2021/05/04 00:56:04;;;;;;;5.57;4.38;;;6.50;99.90;;;;;;5009338;28;20078;-88
2021/05/04 00:58:34;;;;;;;6.20;4.68;;;6.50;99.90;;;;;;5009013;28;20058;-88
2021/05/04 01:01:02;;;;;;;6.70;5.28;;;6.40;99.90;;;;;;4984560;28;20170;-88
2021/05/04 01:03:29;;;;;;;6.30;4.63;;;6.30;99.90;;;;;;5007591;28;20077;-87
2021/05/04 01:05:55;;;;;;;6.90;4.68;;;6.30;99.90;;;;;;4988979;28;20125;-89
2021/05/04 01:08:22;;;;;;;7.53;4.65;;;6.20;99.90;;;;;;4990210;28;20117;-88
2021/05/04 01:10:50;;;;;;;5.85;4.25;;;6.30;99.90;;;;;;4976381;28;20053;-88
2021/05/04 01:13:17;;;;;;;7.30;5.03;;;6.30;99.90;;;;;;5016793;28;20117;-89
2021/05/04 01:15:43;;;;;;;7.97;4.78;;;6.30;99.90;;;;;;4991955;28;20471;-88
2021/05/04 01:18:12;;;;;;;5.88;4.50;;;6.30;99.90;;;;;;5005474;28;20123;-87
2021/05/04 01:20:42;;;;;;;7.15;4.88;;;6.30;99.90;;;;;;5009626;28;20136;-87
2021/05/04 01:23:10;;;;;;;9.20;4.50;;;6.30;99.90;;;;;;4988288;28;20064;-87
2021/05/04 01:25:36;;;;;;;5.55;4.78;;;6.20;99.90;;;;;;4985820;28;20114;-87
2021/05/04 01:28:03;;;;;;;6.75;5.30;;;6.20;99.90;;;;;;4991706;28;20084;-88
2021/05/04 01:30:29;;;;;;;7.50;4.78;;;6.20;99.90;;;;;;4996923;28;20051;-88
2021/05/04 01:33:00;;;;;;;6.75;4.68;;;6.10;99.90;;;;;;4955610;28;20051;-88
2021/05/04 01:35:27;;;;;;;7.47;4.88;;;6.00;99.90;;;;;;4984699;28;20054;-87
2021/05/04 01:37:55;;;;;;;6.60;4.85;;;6.00;99.90;;;;;;4972321;28;20137;-86
2021/05/04 01:40:21;;;;;;;9.10;5.00;;;5.90;99.90;;;;;;5000017;28;20042;-87
2021/05/04 01:42:49;;;;;;;6.78;5.10;;;5.90;99.90;;;;;;4994437;28;20044;-87
2021/05/04 01:45:16;;;;;;;7.70;5.03;;;5.90;99.90;;;;;;4972588;28;20081;-88
2021/05/04 01:47:43;;;;;;;7.18;5.05;;;5.90;99.90;;;;;;4985449;28;20050;-88
2021/05/04 01:50:11;;;;;;;5.80;4.93;;;5.80;99.90;;;;;;4990851;28;20050;-88
2021/05/04 01:52:38;;;;;;;6.72;5.07;;;5.80;99.90;;;;;;4973384;28;20060;-86
2021/05/04 01:55:06;;;;;;;8.32;5.40;;;5.90;99.90;;;;;;4988470;28;20118;-87
2021/05/04 01:57:35;;;;;;;6.68;4.78;;;5.80;99.90;;;;;;4981410;28;20132;-88
2021/05/04 02:00:03;;;;;;;5.60;5.00;;;5.70;99.90;;;;;;4976595;28;20396;-87
2021/05/04 02:02:30;;;;;;;7.95;4.95;;;5.70;99.90;;;;;;4976438;28;20146;-88
2021/05/04 02:04:56;;;;;;;7.60;4.85;;;5.70;99.90;;;;;;4974062;28;20055;-88
2021/05/04 02:07:22;;;;;;;8.05;4.97;;;5.70;99.90;;;;;;4991757;28;20066;-89
2021/05/04 02:09:49;;;;;;;7.03;4.95;;;5.70;99.90;;;;;;5000086;28;20427;-88
2021/05/04 02:12:16;;;;;;;6.78;4.75;;;5.90;99.90;;;;;;4973651;28;20108;-88
2021/05/04 02:14:42;;;;;;;7.28;5.28;;;5.90;99.90;;;;;;4974720;28;20432;-88
2021/05/04 02:17:11;;;;;;;5.65;4.60;;;5.90;99.90;;;;;;4987855;28;20169;-88
2021/05/04 02:19:41;;;;;;;7.60;4.93;;;5.90;99.90;;;;;;4988105;28;20027;-88
2021/05/04 02:22:08;;;;;;;13.43;4.80;;;6.00;99.90;;;;;;4999462;28;20066;-88
2021/05/04 02:24:34;;;;;;;5.93;4.70;;;6.00;99.90;;;;;;5025937;28;20039;-89
2021/05/04 02:27:01;;;;;;;7.47;4.65;;;6.00;99.90;;;;;;4998697;28;20109;-87
2021/05/04 02:29:27;;;;;;;6.30;4.40;;;6.00;99.90;;;;;;4982911;28;20082;-88
2021/05/04 02:31:53;;;;;;;7.03;4.47;;;6.00;99.90;;;;;;5025126;28;20096;-88
2021/05/04 02:34:20;;;;;;;6.25;3.95;;;6.10;99.90;;;;;;5003529;28;20046;-87
2021/05/04 02:36:49;;;;;;;5.13;4.57;;;6.10;99.90;;;;;;4990802;28;20053;-86
2021/05/04 02:39:16;;;;;;;5.18;4.00;;;6.20;99.90;;;;;;4987840;28;20214;-88
2021/05/04 02:41:42;;;;;;;7.22;4.28;;;6.30;99.90;;;;;;4991132;28;20054;-87
2021/05/04 02:44:09;;;;;;;6.28;4.60;;;6.30;99.90;;;;;;4992853;28;20082;-88
2021/05/04 02:46:37;;;;;;;4.45;3.92;;;6.40;99.90;;;;;;4990509;28;20058;-88
2021/05/04 02:49:05;;;;;;;5.82;4.03;;;6.40;99.90;;;;;;4989971;28;20660;-88
2021/05/04 02:51:31;;;;;;;7.90;4.25;;;6.50;99.90;;;;;;4990062;28;20137;-88
2021/05/04 02:53:57;;;;;;;8.07;4.47;;;6.50;99.90;;;;;;4999239;28;20053;-88
2021/05/04 02:56:24;;;;;;;5.95;4.00;;;6.50;99.90;;;;;;4987306;28;20052;-89
2021/05/04 02:58:53;;;;;;;9.68;4.38;;;6.60;99.90;;;;;;4991831;28;20066;-88
2021/05/04 03:01:20;;;;;;;6.47;3.78;;;6.60;99.90;;;;;;4990230;28;20078;-88
2021/05/04 03:03:49;;;;;;;4.53;3.60;;;6.70;99.90;;;;;;4969255;28;20133;-88
2021/05/04 03:06:16;;;;;;;4.90;3.88;;;6.70;99.90;;;;;;4995171;28;20496;-88
2021/05/04 03:08:45;;;;;;;7.05;3.95;;;6.70;99.90;;;;;;4992246;28;20476;-88
2021/05/04 03:11:13;;;;;;;4.95;3.80;;;6.70;99.90;;;;;;4992239;28;20049;-87
2021/05/04 03:13:39;;;;;;;4.22;3.80;;;6.70;99.90;;;;;;4992728;28;20077;-87
2021/05/04 03:16:08;;;;;;;5.57;3.90;;;6.70;99.90;;;;;;4988809;28;20125;-87
2021/05/04 03:18:35;;;;;;;7.13;3.97;;;6.60;99.90;;;;;;5000264;28;20136;-88
2021/05/04 03:21:04;;;;;;;5.60;3.90;;;6.60;99.90;;;;;;5000980;28;20050;-87
2021/05/04 03:23:31;;;;;;;5.25;4.05;;;6.60;99.90;;;;;;4989321;28;20145;-88
2021/05/04 03:25:57;;;;;;;4.03;3.50;;;6.60;99.90;;;;;;4988275;28;20082;-88
2021/05/04 03:28:24;;;;;;;5.80;3.90;;;6.60;99.90;;;;;;4990669;28;20050;-87
2021/05/04 03:30:50;;;;;;;6.88;3.80;;;6.60;99.90;;;;;;4994708;28;20132;-85
2021/05/04 03:33:17;;;;;;;7.85;3.65;;;6.60;99.90;;;;;;4990104;28;20050;-87
2021/05/04 03:35:43;;;;;;;3.85;3.42;;;6.60;99.90;;;;;;5007775;28;20046;-90
2021/05/04 03:38:15;;;;;;;4.03;3.60;;;6.70;99.90;;;;;;4987342;28;20137;-85
2021/05/04 03:40:42;;;;;;;;;;;6.70;99.90;;;;;;5018601;28;20142;-86
2021/05/04 03:43:11;;;;;;;6.68;3.97;;;6.60;99.90;;;;;;4994188;28;20008;-85
2021/05/04 03:45:39;;;;;;;6.75;3.33;;;6.70;99.90;;;;;;5010296;28;20115;-88
2021/05/04 03:48:05;;;;;;;4.22;3.67;;;6.70;99.90;;;;;;5025756;28;20043;-87
2021/05/04 03:50:32;;;;;;;6.13;3.13;;;6.70;99.90;;;;;;5021764;28;20129;-88
2021/05/04 03:53:00;;;;;;;5.45;3.40;;;6.70;99.90;;;;;;4990927;28;20046;-87
2021/05/04 03:55:27;;;;;;;4.75;3.53;;;6.80;99.90;;;;;;4987660;28;20060;-88
2021/05/04 03:57:53;;;;;;;4.03;3.40;;;6.70;99.90;;;;;;4993764;28;20594;-87
2021/05/04 04:00:21;;;;;;;4.90;3.30;;;6.70;99.90;;;;;;4987885;28;20100;-87
2021/05/04 04:02:49;;;;;;;4.60;3.45;;;6.70;99.90;;;;;;5003827;28;20148;-87
2021/05/04 04:05:16;;;;;;;4.45;3.78;;;6.70;99.90;;;;;;4998896;28;20496;-87
2021/05/04 04:07:43;;;;;;;4.40;3.85;;;6.60;99.90;;;;;;5021595;28;20077;-87
2021/05/04 04:10:11;;;;;;;10.07;3.40;;;6.60;99.90;;;;;;4992762;28;20140;-87
2021/05/04 04:12:40;;;;;;;4.97;3.60;;;6.60;99.90;;;;;;5003108;28;20073;-87
2021/05/04 04:15:08;;;;;;;7.32;3.47;;;6.60;99.90;;;;;;4992252;28;20064;-88
2021/05/04 04:17:34;;;;;;;3.90;3.55;;;6.60;99.90;;;;;;5009241;28;20479;-87
2021/05/04 04:20:06;;;;;;;3.38;3.03;;;6.70;99.90;;;;;;5023608;28;20407;-88
2021/05/04 04:22:34;;;;;;;4.75;3.35;;;6.80;99.90;;;;;;5008901;28;20557;-85
2021/05/04 04:25:02;;;;;;;3.80;3.42;;;6.90;99.90;;;;;;5019976;28;20137;-88
2021/05/04 04:27:29;;;;;;;3.72;3.17;;;7.00;99.90;;;;;;5009623;28;20133;-86
2021/05/04 04:29:55;;;;;;;6.10;3.40;;;6.90;99.90;;;;;;4985856;28;20061;-87
2021/05/04 04:32:25;;;;;;;3.70;3.30;;;6.90;99.90;;;;;;4987699;28;20404;-86
2021/05/04 04:34:53;;;;;;;4.88;3.28;;;7.00;99.90;;;;;;4988686;28;20042;-85
2021/05/04 04:37:21;;;;;;;3.72;3.33;;;6.90;99.90;;;;;;5022335;28;20049;-88
2021/05/04 04:39:51;;;;;;;4.40;3.30;;;7.00;99.90;;;;;;4993874;28;20054;-87
2021/05/04 04:42:18;;;;;;;4.13;3.33;;;6.90;99.90;;;;;;5006656;28;20050;-86
2021/05/04 04:44:44;;;;;;;3.58;3.22;;;7.00;99.90;;;;;;5006689;28;20346;-89
2021/05/04 04:47:12;;;;;;;5.32;3.25;;;7.00;99.90;;;;;;4988899;28;20080;-85
2021/05/04 04:49:39;;;;;;;6.78;3.47;;;7.10;99.90;;;;;;4986378;28;20324;-86
2021/05/04 04:52:08;;;;;;;3.88;3.00;;;7.20;99.90;;;;;;4991223;28;20124;-84
2021/05/04 04:54:35;;;;;;;5.20;3.45;;;7.20;99.90;;;;;;4993127;28;20072;-90
2021/05/04 04:57:02;;;;;;;3.63;3.33;;;7.40;99.90;;;;;;5009304;28;20546;-89
2021/05/04 04:59:31;;;;;;;4.55;3.00;;;7.40;99.90;;;;;;5007805;28;20128;-88
2021/05/04 05:01:57;;;;;;;5.72;3.30;;;7.50;99.90;;;;;;5004840;28;20229;-87
2021/05/04 05:04:24;;;;;;;6.50;3.10;;;7.60;99.90;;;;;;4990990;28;20061;-90
2021/05/04 05:06:54;;;;;;;4.38;3.78;;;7.70;99.50;;;;;;4989564;28;20987;-88
2021/05/04 05:09:23;;;;;;;6.95;3.42;;;7.70;99.10;;;;;;5011464;28;20073;-87
2021/05/04 05:11:49;;;;;;;7.32;3.97;;;7.80;98.90;;;;;;5009682;28;20414;-87
2021/05/04 05:14:15;;;;;;;5.55;3.03;;;7.80;99.00;;;;;;4991038;28;20054;-88
2021/05/04 05:16:42;;;;;;;4.25;3.03;;;7.80;99.10;;;;;;4992509;28;20165;-86
2021/05/04 05:19:08;;;;;;;3.05;2.75;;;7.90;98.50;;;;;;5002989;28;20381;-86
2021/05/04 05:21:39;;;;;;;3.75;3.00;;;8.00;97.60;;;;;;4992248;28;20125;-87
2021/05/04 05:24:06;;;;;;;7.18;3.33;;;8.10;96.20;;;;;;5008411;28;20085;-86
2021/05/04 05:26:33;;;;;;;4.93;3.17;;;8.20;95.90;;;;;;5022556;28;20137;-85
2021/05/04 05:29:00;;;;;;;4.57;3.00;;;8.30;95.30;;;;;;4995384;28;20108;-92
2021/05/04 05:31:30;;;;;;;7.50;3.15;;;8.40;94.10;;;;;;5030699;28;20497;-85
2021/05/04 05:33:56;;;;;;;4.05;3.08;;;8.50;93.90;;;;;;5004353;28;20356;-85
2021/05/04 05:36:23;;;;;;;7.57;3.15;;;8.50;93.40;;;;;;4994342;28;20049;-92
2021/05/04 05:38:49;;;;;;;6.22;3.28;;;8.70;93.00;;;;;;5006148;28;20053;-88
2021/05/04 05:41:16;;;;;;;4.75;2.95;;;8.70;92.60;;;;;;4996760;28;20069;-90
2021/05/04 05:43:43;;;;;;;3.40;3.10;;;8.80;92.10;;;;;;5012392;28;20115;-88
2021/05/04 05:46:09;;;;;;;3.78;3.40;;;8.80;91.60;;;;;;4996584;28;20104;-89
2021/05/04 05:48:35;;;;;;;3.63;3.05;;;8.90;91.60;;;;;;5021030;28;20054;-85
2021/05/04 05:51:02;;;;;;;3.28;2.70;;;9.00;90.50;;;;;;5027449;28;20053;-87
2021/05/04 05:53:30;;;;;;;3.50;3.20;;;9.10;90.20;;;;;;4994716;28;20033;-88
2021/05/04 05:55:57;;;;;;;6.03;2.85;;;9.20;89.50;;;;;;5028625;28;20050;-87
2021/05/04 05:58:26;;;;;;;6.40;3.10;;;9.40;86.40;;;;;;5019662;28;20129;-88
2021/05/04 06:00:56;;;;;;;8.30;3.22;;;9.40;86.90;;;;;;5016375;28;20046;-84
2021/05/04 06:03:23;;;;;;;3.53;3.10;;;9.50;85.80;;;;;;5025948;28;20102;-90
2021/05/04 06:05:51;;;;;;;3.30;2.60;;;9.60;84.60;;;;;;5027624;28;20120;-90
2021/05/04 06:08:23;;;;;;;3.10;2.75;;;9.70;83.20;;;;;;4999662;28;20046;-90
2021/05/04 06:10:50;;;;;;;4.00;2.75;;;9.70;83.90;;;;;;5001505;28;20493;-92
2021/05/04 06:13:20;;;;;;;4.20;3.10;;;9.80;82.80;;;;;;5031952;28;20045;-93
2021/05/04 06:15:49;;;;;;;5.47;2.85;;;9.90;81.90;;;;;;5000222;28;20045;-91
2021/05/04 06:18:16;;;;;;;4.70;2.70;;;9.90;81.10;;;;;;5018730;28;20038;-90
2021/05/04 06:20:43;;;;;;;6.03;2.80;;;10.00;79.80;;;;;;4997005;28;20054;-92
2021/05/04 06:23:17;;;;;;;4.05;2.70;;;10.10;79.10;;;;;;5017376;28;20092;-90
2021/05/04 06:25:44;;;;;;;5.78;2.45;;;10.20;79.10;;;;;;4996920;28;20066;-91
2021/05/04 06:28:11;;;;;;;4.63;2.92;;;10.30;77.80;;;;;;5002490;28;20529;-92
2021/05/04 06:30:39;;;;;;;6.53;3.22;;;10.40;77.10;;;;;;5001380;28;20057;-92
2021/05/04 06:33:10;;;;;;;3.35;2.42;;;10.40;77.70;;;;;;4997416;28;20452;-92
2021/05/04 06:35:41;;;;;;;3.70;2.50;;;10.50;75.30;;;;;;5016305;28;20056;-90
2021/05/04 06:38:13;;;;;;;2.72;2.53;;;10.50;76.70;;;;;;5016252;28;20042;-90
2021/05/04 06:40:44;;;;;;;4.32;3.10;;;10.60;75.50;;;;;;4998105;28;20499;-91
2021/05/04 06:43:13;;;;;;;3.50;2.67;;;10.60;74.80;;;;;;5016732;28;20045;-93
2021/05/04 06:45:40;;;;;;;3.47;2.30;;;10.60;74.40;;;;;;5000397;28;20061;-93
2021/05/04 06:48:07;;;;;;;2.60;2.40;;;10.70;75.60;;;;;;5004693;28;20057;-92
2021/05/04 06:50:33;;;;;;;4.18;2.50;;;10.80;75.20;;;;;;5033281;28;20049;-94
2021/05/04 06:53:02;;;;;;;2.50;2.30;;;10.80;74.10;;;;;;5019174;28;20133;-92
2021/05/04 06:55:32;;;;;;;4.68;2.40;;;10.80;74.00;;;;;;5016224;28;20374;-91
2021/05/04 06:58:01;;;;;;;3.55;2.22;;;10.80;73.50;;;;;;5017482;28;20057;-91
2021/05/04 07:00:30;;;;;;;4.35;2.38;;;10.90;73.10;;;;;;5008529;28;20740;-90
2021/05/04 07:03:00;;;;;;;9.48;2.30;;;10.90;73.10;;;;;;5002505;28;20111;-92
2021/05/04 07:05:27;;;;;;;4.43;2.20;;;11.00;72.50;;;;;;4996229;28;20466;-91
2021/05/04 07:08:01;;;;;;;2.28;2.08;;;11.10;71.70;;;;;;5030325;28;20077;-92
2021/05/04 07:10:30;;;;;;;4.50;2.20;;;11.20;70.70;;;;;;5004683;28;20054;-89
2021/05/04 07:12:58;;;;;;;4.30;2.55;;;11.40;69.90;;;;;;5014216;28;20107;-92
2021/05/04 07:15:27;;;;;;;4.35;2.17;;;11.60;69.60;;;;;;4996712;28;20124;-90
2021/05/04 07:17:53;;;;;;;3.70;1.80;;;11.70;69.40;;;;;;5014274;28;20093;-91
2021/05/04 07:20:21;;;;;;;2.25;1.90;;;11.70;68.60;;;;;;4996319;28;20046;-91
2021/05/04 07:22:55;;;;;;;3.47;2.33;;;11.80;67.70;;;;;;5035826;28;20054;-91
2021/05/04 07:25:22;;;;;;;5.85;2.08;;;11.90;66.80;;;;;;5027973;28;20395;-89
2021/05/04 07:27:52;;;;;;;3.22;1.73;;;11.90;66.30;;;;;;5001779;28;20068;-91
2021/05/04 07:30:20;;;;;;;3.03;1.92;;;12.00;65.80;;;;;;5000280;28;20060;-89
2021/05/04 07:32:46;;;;;;;3.53;1.48;;;12.20;64.70;;;;;;4977546;28;20074;-92
2021/05/04 07:35:13;;;;;;;3.30;1.88;;;12.40;62.80;;;;;;4974273;28;20121;-88
2021/05/04 07:37:41;;;;;;;4.20;1.92;;;12.60;60.90;;;;;;4982475;28;20172;-91
2021/05/04 07:40:16;;;;;;;5.30;2.03;;;13.00;59.40;;;;;;5001920;28;20137;-90
2021/05/04 07:42:44;;;;;;;2.53;1.70;;;13.30;58.80;;;;;;4975855;28;20065;-86
2021/05/04 07:45:17;;;;;;;4.85;1.80;;;13.50;59.20;;;;;;4974414;28;20047;-89
2021/05/04 07:47:48;;;;;;;1.95;1.60;;;13.70;58.20;;;;;;4972249;28;20117;-91
2021/05/04 07:50:16;;;;;;;3.60;1.90;;;13.90;57.40;;;;;;4959247;28;20491;-91
2021/05/04 07:52:42;;;;;;;2.55;1.70;;;14.00;56.60;;;;;;4994912;28;20038;-91
2021/05/04 07:55:09;;;;;;;2.03;1.52;;;14.10;55.50;;;;;;4980241;28;20050;-91
2021/05/04 07:57:36;;;;;;;1.85;1.50;;;14.30;54.90;;;;;;4989031;28;20172;-86
2021/05/04 08:00:04;;;;;;;3.40;1.40;;;14.40;55.10;;;;;;4985356;28;20050;-90
2021/05/04 08:02:31;;;;;;;5.18;1.52;;;14.70;54.70;;;;;;4985162;28;20050;-89
2021/05/04 08:04:57;;;;;;;4.47;2.10;;;14.80;54.10;;;;;;4982178;28;20160;-89
2021/05/04 08:07:24;;;;;;;3.17;1.60;;;14.80;53.60;;;;;;4989479;28;20053;-88
2021/05/04 08:09:54;;;;;;;2.75;1.73;;;14.90;53.50;;;;;;4997569;28;20062;-87
2021/05/04 08:12:24;;;;;;;3.08;1.65;;;14.90;53.30;;;;;;4965510;28;20069;-88
2021/05/04 08:14:52;;;;;;;2.38;1.83;;;15.10;53.20;;;;;;4968719;28;20077;-91
2021/05/04 08:17:27;;;;;;;4.03;1.58;;;14.80;53.00;;;;;;4991932;28;20057;-89
2021/05/04 08:19:59;;;;;;;2.30;1.60;;;14.70;53.50;;;;;;4993389;28;20065;-90
2021/05/04 08:22:26;;;;;;;2.72;1.85;;;14.50;53.10;;;;;;4976314;28;20116;-90
2021/05/04 08:24:55;;;;;;;2.95;1.30;;;14.50;54.20;;;;;;4993257;28;20503;-91
2021/05/04 08:27:21;;;;;;;4.43;1.70;;;14.60;55.00;;;;;;4979917;28;20038;-91
2021/05/04 08:29:49;;;;;;;4.57;1.80;;;14.60;53.70;;;;;;4976905;28;20056;-92
2021/05/04 08:32:15;;;;;;;2.65;1.88;;;14.60;54.60;;;;;;4995532;28;20108;-89
2021/05/04 08:34:45;;;;;;;5.72;1.48;;;14.70;54.40;;;;;;4998258;28;20050;-90
2021/05/04 08:37:14;;;;;;;1.90;1.45;;;14.90;54.60;;;;;;5012066;28;20054;-90
2021/05/04 08:39:41;;;;;;;5.57;1.65;;;15.00;54.20;;;;;;4992754;28;20081;-91
2021/05/04 08:42:12;;;;;;;3.83;1.73;;;15.40;54.00;;;;;;4997168;28;20046;-88
2021/05/04 08:44:42;;;;;;;6.53;1.77;;;15.90;53.10;;;;;;4979947;28;20058;-90
2021/05/04 08:47:09;;;;;;;3.35;1.60;;;16.20;52.50;;;;;;4995859;28;20507;-89
2021/05/04 08:49:38;;;;;;;1.63;1.52;;;16.60;52.10;;;;;;4993655;28;20045;-89
2021/05/04 08:52:06;;;;;;;5.45;2.20;;;16.60;50.70;;;;;;5009986;28;20065;-90
2021/05/04 08:54:34;;;;;;;2.35;1.70;;;16.30;50.40;;;;;;5007630;28;20041;-90
2021/05/04 08:57:03;;;;;;;1.83;1.58;;;16.30;51.50;;;;;;5002763;28;20444;-88
2021/05/04 08:59:33;;;;;;;2.83;1.85;;;16.50;51.50;;;;;;5010804;28;20045;-90
2021/05/04 09:02:08;;;;;;;7.40;1.83;;;16.70;50.70;;;;;;5000699;28;20111;-90
2021/05/04 09:04:50;;;;;;;2.63;1.50;;;16.80;50.50;;;;;;5018032;28;20054;-91
2021/05/04 09:07:24;;;;;;;4.55;1.83;;;16.80;49.90;;;;;;4992367;28;20114;-92
2021/05/04 09:13:08;;;;;;;3.15;1.70;;;16.90;49.20;;;;;;4999599;28;20057;-92
2021/05/04 09:18:41;;;;;;;2.13;1.35;;;16.90;50.40;;;;;;5025841;28;20059;-92
2021/05/04 09:21:10;;;;;;;1.70;1.60;;;17.20;50.00;;;;;;5029693;28;20061;-89
2021/05/04 09:23:42;;;;;;;6.03;1.60;;;17.00;49.50;;;;;;5026579;28;20054;-89
2021/05/04 09:26:34;;;;;;;3.17;1.80;;;16.90;49.50;;;;;;5021315;28;20042;-90
2021/05/04 09:29:09;;;;;;;2.83;1.60;;;17.20;49.20;;;;;;5023025;28;20041;-90
2021/05/04 09:31:40;;;;;;;2.70;1.70;;;17.20;49.20;;;;;;5019368;28;20044;-90
2021/05/04 09:34:16;;;;;;;2.50;1.60;;;16.90;49.20;;;;;;5021049;28;20042;-86
2021/05/04 09:36:50;;;;;;;4.50;1.85;;;16.90;49.50;;;;;;5019421;28;20030;-89
2021/05/04 09:39:24;;;;;;;6.32;1.45;;;17.30;49.60;;;;;;5006126;28;20126;-91
2021/05/04 09:41:56;;;;;;;4.00;1.85;;;17.70;49.20;;;;;;5032611;28;20073;-91
2021/05/04 09:44:36;;;;;;;2.85;1.80;;;18.20;48.40;;;;;;5003502;28;20120;-86
2021/05/04 09:47:03;;;;;;;2.15;1.70;;;17.90;46.90;;;;;;5003898;28;20141;-86
2021/05/04 09:49:37;;;;;;;1.90;1.65;;;17.70;48.80;;;;;;5024563;28;20112;-91
2021/05/04 09:52:23;;;;;;;1.85;1.52;;;17.70;48.20;;;;;;5038463;28;20093;-90
2021/05/04 09:54:51;;;;;;;3.33;1.80;;;17.70;48.90;;;;;;5034294;28;20042;-90
2021/05/04 09:57:43;;;;;;;3.45;2.00;;;17.40;48.90;;;;;;5015680;28;20057;-89
2021/05/04 10:00:16;;;;;;;4.70;2.03;;;16.90;49.20;;;;;;5026921;28;21075;-90
2021/05/04 10:02:42;;;;;;;9.55;1.80;;;17.10;50.00;;;;;;5032772;28;20117;-89
2021/05/04 10:05:14;;;;;;;4.82;2.00;;;17.50;48.50;;;;;;5006709;28;20077;-88
2021/05/04 10:07:46;;;;;;;3.75;1.70;;;17.30;49.10;;;;;;4997825;28;20058;-89
2021/05/04 10:10:21;;;;;;;3.17;1.67;;;17.80;49.00;;;;;;4998447;28;20105;-88
2021/05/04 10:12:47;;;;;;;4.13;2.10;;;17.90;48.20;;;;;;5011674;28;20057;-89
2021/05/04 10:15:15;;;;;;;5.82;2.05;;;17.00;48.30;;;;;;5026964;28;20503;-90
2021/05/04 10:17:42;;;;;;;3.67;1.63;;;16.80;49.30;;;;;;5003151;28;20054;-89
2021/05/04 10:20:15;;;;;;;5.07;2.00;;;16.70;49.40;;;;;;4995023;28;20057;-88
2021/05/04 10:22:44;;;;;;;2.00;1.70;;;16.70;49.00;;;;;;4994540;28;20051;-87
2021/05/04 10:25:30;;;;;;;5.85;1.98;;;17.30;48.80;;;;;;4993312;28;20116;-86
2021/05/04 10:28:00;;;;;;;2.83;1.58;;;16.70;47.90;;;;;;5018901;28;20054;-91
2021/05/04 10:30:26;;;;;;;2.67;1.77;;;16.50;49.70;;;;;;5006061;28;20133;-91
2021/05/04 10:32:55;;;;;;;5.60;1.90;;;16.50;49.40;;;;;;5029797;28;20112;-86
2021/05/04 10:35:36;;;;;;;2.70;1.58;;;16.70;49.90;;;;;;5013997;28;20081;-84
2021/05/04 10:38:08;;;;;;;1.98;1.50;;;17.20;49.80;;;;;;5037262;28;20133;-90
2021/05/04 10:40:39;;;;;;;7.43;2.10;;;17.00;48.70;;;;;;5029057;28;20061;-90
2021/05/04 10:43:27;;;;;;;4.28;1.63;;;16.60;48.90;;;;;;5001157;28;20315;-90
2021/05/04 10:46:00;;;;;;;4.97;1.90;;;16.50;49.40;;;;;;5028141;28;20600;-90
2021/05/04 10:48:39;;;;;;;6.32;2.05;;;16.70;49.90;;;;;;4998301;28;20478;-91
2021/05/04 10:51:51;;;;;;;7.07;2.08;;;16.90;49.80;;;;;;4989292;28;20070;-90
2021/05/04 10:54:20;;;;;;;5.22;1.70;;;16.50;50.00;;;;;;4977965;28;20126;-91
2021/05/04 10:56:59;;;;;;;4.93;2.10;;;16.50;49.90;;;;;;4982603;28;20077;-90
2021/05/04 10:59:29;;;;;;;6.15;1.83;;;16.50;49.60;;;;;;5003134;28;20137;-89
2021/05/04 11:02:10;;;;;;;4.30;1.90;;;16.70;50.30;;;;;;4981705;28;20101;-89
2021/05/04 11:04:39;;;;;;;;;;;17.00;49.10;;;;;;4979100;28;20121;-91
2021/05/04 11:07:05;;;;;;;6.78;2.03;;;16.80;48.90;;;;;;4977195;28;19922;-90
2021/05/04 11:09:40;;;;;;;3.58;1.52;;;16.20;50.10;;;;;;4978910;28;20475;-88
2021/05/04 11:12:07;;;;;;;5.32;2.28;;;16.00;50.70;;;;;;4978850;28;20066;-90
2021/05/04 11:14:39;;;;;;;4.15;1.92;;;16.40;50.00;;;;;;4977672;28;20582;-88
2021/05/04 11:17:16;;;;;;;6.85;2.00;;;17.00;49.90;;;;;;4975548;28;20061;-89
2021/05/04 11:19:44;;;;;;;3.83;1.73;;;17.60;49.20;;;;;;4972334;28;20129;-86
2021/05/04 11:22:15;;;;;;;2.50;1.90;;;17.80;48.80;;;;;;4980468;28;20057;-90
2021/05/04 11:24:50;;;;;;;4.47;1.83;;;18.00;47.30;;;;;;4987445;28;20069;-90
2021/05/04 11:27:20;;;;;;;2.35;1.73;;;17.30;48.70;;;;;;4998412;28;20045;-89
2021/05/04 11:29:50;;;;;;;4.07;1.70;;;16.80;49.50;;;;;;5027498;28;20053;-88
2021/05/04 11:32:28;;;;;;;6.20;2.00;;;16.40;50.40;;;;;;4998284;28;20112;-89
2021/05/04 11:35:00;;;;;;;3.10;1.90;;;16.20;49.20;;;;;;5028197;28;20335;-89
2021/05/04 11:37:28;;;;;;;4.45;1.50;;;16.40;49.80;;;;;;4998702;28;20112;-88
2021/05/04 11:39:58;;;;;;;3.42;1.95;;;16.70;49.00;;;;;;5012395;28;20065;-85
2021/05/04 11:42:33;;;;;;;4.05;1.83;;;16.20;50.20;;;;;;5013157;28;20111;-92
2021/05/04 11:45:12;;;;;;;3.03;1.95;;;16.30;51.20;;;;;;4995112;28;20073;-91
2021/05/04 11:47:41;;;;;;;4.90;2.05;;;16.40;50.40;;;;;;5014931;28;20184;-89
2021/05/04 11:50:18;;;;;;;5.07;2.10;;;16.30;50.50;;;;;;4999821;28;20045;-90
2021/05/04 11:52:47;;;;;;;5.03;2.55;;;16.00;50.40;;;;;;4996896;28;20072;-89
2021/05/04 11:55:22;;;;;;;3.38;1.67;;;15.80;50.80;;;;;;5008523;28;20045;-90
2021/05/04 11:57:59;;;;;;;2.75;1.80;;;15.40;51.30;;;;;;5013510;28;20049;-89
2021/05/04 12:01:00;;;;;;;5.00;1.90;;;15.20;52.30;;;;;;5005286;28;20072;-92
2021/05/04 12:03:36;;;;;;;5.18;2.10;;;15.30;52.50;;;;;;5018651;28;20058;-90
2021/05/04 12:06:07;;;;;;;2.33;1.60;;;15.40;52.90;;;;;;5035854;28;20098;-85
2021/05/04 12:08:44;;;;;;;5.18;1.88;;;15.90;52.20;;;;;;5017414;28;20046;-91
2021/05/04 12:11:13;;;;;;;4.43;2.10;;;16.00;52.80;;;;;;5035140;28;20085;-92
2021/05/04 12:13:59;;;;;;;4.90;2.10;;;15.90;50.80;;;;;;5019778;28;20037;-89
2021/05/04 12:16:30;;;;;;;4.30;1.75;;;15.70;51.90;;;;;;5030551;28;20050;-88
2021/05/04 12:18:58;;;;;;;7.35;1.80;;;15.90;51.10;;;;;;5014876;28;20065;-90
2021/05/04 12:21:29;;;;;;;5.38;1.70;;;15.60;51.30;;;;;;4993685;28;20129;-88
2021/05/04 12:23:58;;;;;;;3.35;2.00;;;15.50;52.00;;;;;;4995944;28;20081;-87
2021/05/04 12:26:25;;;;;;;2.33;1.77;;;15.50;53.00;;;;;;4988207;28;20087;-90
2021/05/04 12:28:56;;;;;;;6.50;1.90;;;15.70;53.80;;;;;;5028457;28;20045;-90
2021/05/04 12:31:30;;;;;;;4.85;1.77;;;16.00;54.00;;;;;;5002502;28;20046;-86
2021/05/04 12:33:59;;;;;;;6.45;1.50;;;16.30;52.50;;;;;;5007377;28;20443;-87
2021/05/04 12:36:50;;;;;;;3.22;1.77;;;16.10;53.50;;;;;;5010188;28;20042;-89
2021/05/04 12:39:44;;;;;;;2.60;1.83;;;16.10;53.50;;;;;;4995071;28;20347;-88
2021/05/04 12:42:27;;;;;;;2.88;1.77;;;16.00;58.40;;;;;;4994111;28;20112;-90
2021/05/04 12:45:12;;;;;;;2.15;1.80;;;15.50;60.80;;;;;;5013788;28;20046;-87
2021/05/04 12:47:49;;;;;;;3.25;2.10;;;15.30;63.50;;;;;;5007825;28;20056;-87
2021/05/04 12:50:34;;;;;;;4.30;2.55;;;15.10;67.60;;;;;;5030810;28;20046;-87
2021/05/04 12:53:06;;;;;;;7.40;1.95;;;15.00;77.80;;;;;;5005691;28;20065;-89
2021/05/04 12:55:36;;;;;;;2.83;1.90;;;15.30;76.80;;;;;;5025499;28;20038;-88
2021/05/04 12:58:15;;;;;;;4.25;1.88;;;15.70;68.80;;;;;;5022637;28;20435;-87
2021/05/04 13:01:02;;;;;;;4.60;2.05;;;16.10;67.50;;;;;;5015099;28;20057;-89
2021/05/04 13:03:47;;;;;;;3.10;1.90;;;15.80;67.60;;;;;;5001650;28;20113;-88
2021/05/04 13:06:42;;;;;;;4.20;2.13;;;15.30;71.80;;;;;;5001957;28;20129;-90
2021/05/04 13:09:17;;;;;;;3.35;1.77;;;14.70;67.90;;;;;;5004848;28;20053;-89
2021/05/04 13:14:45;;;;;;;3.70;2.43;;;15.00;65.90;;;;;;5012000;28;20111;-85
2021/05/04 13:37:11;;;;;;;4.60;1.90;;;15.70;59.80;;;;;;4991231;28;20042;-87